Search for airport 
image banner adimage banner ad
image banner ad

EVLI - Limbazi

Located in Limbazi, Latvia

ICAO - , IATA -

Data provided by Airmate  

General information

Coordinates: N57°29'6" E24°40'20"
Elevation is 211 feet MSL.
Magnetic variation is 6° East
Rated:
View ratings: [VIEW]


View others Airports in Limbaži District

Operational data

Open for public use
Current time UTC:
Current local time:
Weather at : EVRA - Riga ( 75 km )
METAR: EVRA 141450Z 32005KT 270V360 9999 SCT043 24/12 Q1015 NOSIG
TAF: TAF EVRA 141400Z 1415/1515 VRB02KT 9999 SCT040 TEMPO 1420/1423 3000 MIFG BR TEMPO 1423/1505 0500 FG PROB40 TEMPO 1500/1505 BKN001
View NOTAMs / SUP AIP / TFR affecting this airport [VIEW]
Communications frequencies: [VIEW]

Runways:

RWY identifierQFULength (ft)Width (ft)SurfaceLDA (ft)
16170°233698GRASS1542
34350°233698GRASS1690

Airport contact information

Address: Limbazi Latvia

Satellite view of EVLI